createdAt,value
2022-08-11T00:00:08.257Z,2.20
2022-08-11T00:05:16.632Z,2.23
2022-08-11T00:10:23.627Z,2.90
2022-08-11T00:15:49.942Z,2.37
2022-08-11T00:21:03.292Z,2.20
2022-08-11T00:26:09.397Z,2.30
2022-08-11T00:31:26.392Z,2.47
2022-08-11T00:36:39.864Z,2.10
2022-08-11T00:41:56.759Z,2.53
2022-08-11T00:47:15.298Z,2.67
2022-08-11T00:52:43.781Z,2.10
2022-08-11T00:58:38.713Z,2.50
2022-08-11T01:04:27.130Z,2.33
2022-08-11T01:09:43.633Z,2.43
2022-08-11T01:15:25.246Z,2.60
2022-08-11T01:21:05.001Z,2.13
2022-08-11T01:27:01.226Z,2.50
2022-08-11T01:32:52.023Z,2.43
2022-08-11T01:38:23.477Z,2.30
2022-08-11T01:44:23.720Z,2.50
2022-08-11T01:50:08.748Z,2.20
2022-08-11T01:55:17.554Z,2.37
2022-08-11T02:00:27.030Z,2.20
2022-08-11T02:06:01.850Z,2.63
2022-08-11T02:11:34.573Z,3.13
2022-08-11T02:16:54.003Z,2.47
2022-08-11T02:22:25.348Z,2.60
2022-08-11T02:27:42.322Z,2.27
2022-08-11T02:33:11.692Z,2.60
2022-08-11T02:38:43.982Z,2.43
2022-08-11T02:44:04.014Z,2.50
2022-08-11T02:49:34.252Z,2.47
2022-08-11T02:54:49.602Z,2.53
2022-08-11T02:59:59.327Z,2.70
2022-08-11T03:05:17.696Z,2.63
2022-08-11T03:10:27.809Z,2.63
2022-08-11T03:16:01.393Z,2.73
2022-08-11T03:21:13.150Z,2.57
2022-08-11T03:26:28.100Z,2.60
2022-08-11T03:31:42.478Z,2.63
2022-08-11T03:37:36.404Z,2.43
2022-08-11T03:42:48.971Z,2.53
2022-08-11T03:48:21.520Z,2.40
2022-08-11T03:53:55.593Z,2.40
2022-08-11T03:59:30.638Z,2.87
2022-08-11T04:05:11.513Z,2.77
2022-08-11T04:10:50.601Z,2.47
2022-08-11T04:16:31.491Z,2.80
2022-08-11T04:22:19.970Z,3.03
2022-08-11T04:28:28.342Z,3.23
2022-08-11T04:33:56.606Z,3.70
2022-08-11T04:39:12.745Z,3.50
2022-08-11T04:44:44.381Z,3.50
2022-08-11T04:50:39.658Z,3.40
2022-08-11T04:56:22.147Z,3.27
2022-08-11T05:01:44.220Z,3.13
2022-08-11T05:07:23.272Z,3.30
2022-08-11T05:12:33.454Z,3.17
2022-08-11T05:17:59.536Z,3.07
2022-08-11T05:23:25.910Z,4.00
2022-08-11T05:28:50.995Z,4.00
2022-08-11T05:34:16.514Z,3.53
2022-08-11T05:39:42.194Z,3.77
2022-08-11T05:45:05.791Z,3.30
2022-08-11T05:50:38.397Z,3.40
2022-08-11T05:56:04.102Z,4.03
2022-08-11T06:01:08.508Z,3.73
2022-08-11T06:06:12.442Z,3.70
2022-08-11T06:11:19.366Z,3.90
2022-08-11T06:16:44.221Z,3.53
2022-08-11T06:21:49.138Z,4.20
2022-08-11T06:27:11.663Z,3.50
2022-08-11T06:32:17.619Z,3.40
2022-08-11T06:37:26.426Z,3.53
2022-08-11T06:42:46.098Z,3.33
2022-08-11T06:47:50.604Z,3.20
2022-08-11T06:52:55.282Z,3.37
2022-08-11T06:58:18.240Z,3.23
2022-08-11T07:03:22.711Z,3.23
2022-08-11T07:09:22.333Z,3.10
2022-08-11T07:14:47.671Z,3.33
2022-08-11T07:20:12.215Z,3.60
2022-08-11T07:25:37.523Z,3.40
2022-08-11T07:30:44.139Z,3.40
2022-08-11T07:35:53.557Z,3.40
2022-08-11T07:41:00.990Z,3.43
2022-08-11T07:46:24.761Z,2.80
2022-08-11T07:51:45.657Z,3.30
2022-08-11T07:56:55.577Z,3.10
2022-08-11T08:02:31.850Z,4.00
2022-08-11T08:07:53.299Z,3.80
2022-08-11T08:13:16.271Z,3.80
2022-08-11T08:18:26.543Z,3.20
2022-08-11T08:23:34.556Z,3.43
2022-08-11T08:28:38.475Z,3.27
2022-08-11T08:33:44.447Z,3.20
2022-08-11T08:38:50.842Z,2.67
2022-08-11T08:44:15.118Z,2.83
2022-08-11T08:49:30.606Z,2.93
2022-08-11T08:54:37.461Z,2.83
2022-08-11T08:59:48.742Z,2.90
2022-08-11T09:04:55.019Z,2.57
2022-08-11T09:10:00.314Z,2.77
2022-08-11T09:15:10.607Z,3.00
2022-08-11T09:20:20.302Z,2.77
2022-08-11T09:25:44.507Z,2.97
2022-08-11T09:30:53.803Z,2.50
2022-08-11T09:36:19.771Z,2.60
2022-08-11T09:41:25.655Z,2.87
2022-08-11T09:46:31.124Z,2.43
2022-08-11T09:51:36.536Z,3.07
2022-08-11T09:57:05.330Z,2.50
2022-08-11T10:02:11.508Z,2.43
2022-08-11T10:07:20.364Z,2.63
2022-08-11T10:12:26.442Z,2.57
2022-08-11T10:17:33.599Z,2.57
2022-08-11T10:22:56.695Z,2.47
2022-08-11T10:28:28.561Z,2.67
2022-08-11T10:33:57.530Z,2.70
2022-08-11T10:39:05.886Z,3.17
2022-08-11T10:44:12.496Z,3.27
2022-08-11T10:49:16.570Z,2.47
2022-08-11T10:54:40.261Z,2.37
2022-08-11T10:59:44.909Z,2.20
2022-08-11T11:05:02.616Z,2.40
2022-08-11T11:10:09.590Z,2.60
2022-08-11T11:15:31.853Z,2.63
2022-08-11T11:20:47.138Z,2.53
2022-08-11T11:26:28.954Z,2.47
2022-08-11T11:31:45.212Z,2.50
2022-08-11T11:36:59.811Z,2.38
2022-08-11T11:42:08.205Z,2.30
2022-08-11T11:47:14.539Z,2.88
2022-08-11T11:52:26.567Z,2.55
2022-08-11T11:58:02.631Z,2.60
2022-08-11T12:03:21.463Z,2.50
2022-08-11T12:08:48.216Z,2.80
2022-08-11T12:13:55.302Z,2.60
2022-08-11T12:19:01.475Z,2.33
2022-08-11T12:24:30.372Z,2.65
2022-08-11T12:29:35.841Z,2.80
2022-08-11T12:34:41.278Z,2.50
2022-08-11T12:40:42.619Z,2.60
2022-08-11T12:45:48.320Z,2.60
2022-08-11T12:51:20.311Z,2.60
2022-08-11T12:56:42.605Z,2.58
2022-08-11T13:02:05.388Z,2.63
2022-08-11T13:07:10.785Z,2.28
2022-08-11T13:12:34.748Z,3.17
2022-08-11T13:17:43.867Z,2.55
2022-08-11T13:22:52.058Z,2.60
2022-08-11T13:28:00.357Z,2.17
2022-08-11T13:33:07.861Z,2.60
2022-08-11T13:38:17.508Z,2.40
2022-08-11T13:43:27.219Z,2.40
2022-08-11T13:48:32.554Z,2.40
2022-08-11T13:53:38.454Z,2.58
2022-08-11T13:58:42.829Z,2.42
2022-08-11T14:04:29.974Z,2.42
2022-08-11T14:09:17.804Z,2.60
2022-08-11T14:14:27.011Z,2.50
2022-08-11T14:19:34.630Z,2.83
2022-08-11T14:24:42.281Z,2.88
2022-08-11T14:29:48.950Z,2.60
2022-08-11T14:34:58.192Z,2.78
2022-08-11T14:40:31.705Z,2.80
2022-08-11T14:46:11.238Z,2.63
2022-08-11T14:51:18.005Z,2.70
2022-08-11T14:56:43.682Z,2.55
2022-08-11T15:02:05.277Z,2.75
2022-08-11T15:07:16.775Z,2.78
2022-08-11T15:12:32.995Z,2.80
2022-08-11T15:17:43.631Z,2.33
2022-08-11T15:23:21.933Z,2.78
2022-08-11T15:28:45.885Z,2.70
2022-08-11T15:34:18.071Z,2.20
2022-08-11T15:39:38.465Z,2.70
2022-08-11T15:45:04.414Z,2.53
2022-08-11T15:50:18.651Z,2.50
2022-08-11T15:55:39.018Z,2.60
2022-08-11T16:01:04.447Z,2.13
2022-08-11T16:06:15.826Z,2.40
2022-08-11T16:11:23.336Z,2.33
2022-08-11T16:16:33.738Z,2.63
2022-08-11T16:21:43.444Z,2.47
2022-08-11T16:27:10.891Z,2.47
2022-08-11T16:32:23.552Z,2.35
2022-08-11T16:37:45.770Z,2.30
2022-08-11T16:43:11.663Z,2.20
2022-08-11T16:48:40.288Z,2.28
2022-08-11T16:54:00.167Z,2.50
2022-08-11T16:59:20.164Z,2.38
2022-08-11T17:04:54.043Z,2.20
2022-08-11T17:10:31.747Z,2.20
2022-08-11T17:16:10.584Z,2.10
2022-08-11T17:21:19.281Z,1.95
2022-08-11T17:26:53.002Z,2.10
2022-08-11T17:32:16.642Z,2.00
2022-08-11T17:37:21.911Z,2.22
2022-08-11T17:42:49.977Z,2.00
2022-08-11T17:48:25.082Z,2.10
2022-08-11T17:54:13.422Z,2.28
2022-08-11T17:59:36.907Z,2.10
2022-08-11T18:04:46.361Z,2.17
2022-08-11T18:10:08.113Z,2.45
2022-08-11T18:15:32.437Z,2.20
2022-08-11T18:20:58.467Z,2.20
2022-08-11T18:26:22.108Z,2.20
2022-08-11T18:31:44.974Z,2.10
2022-08-11T18:37:19.902Z,2.17
2022-08-11T18:42:47.371Z,2.23
2022-08-11T18:48:12.775Z,1.90
2022-08-11T18:53:36.941Z,2.07
2022-08-11T18:59:05.913Z,1.93
2022-08-11T19:04:29.943Z,2.20
2022-08-11T19:09:55.064Z,2.10
2022-08-11T19:15:19.917Z,2.00
2022-08-11T19:20:46.386Z,2.30
2022-08-11T19:26:19.032Z,2.10
2022-08-11T19:31:44.808Z,1.87
2022-08-11T19:37:18.625Z,2.00
2022-08-11T19:42:34.572Z,2.47
2022-08-11T19:48:30.219Z,2.00
2022-08-11T19:53:48.036Z,2.20
2022-08-11T19:58:56.276Z,2.07
2022-08-11T20:04:19.049Z,2.13
2022-08-11T20:10:06.185Z,1.83
2022-08-11T20:37:47.641Z,2.90
2022-08-11T20:44:06.429Z,2.23
2022-08-11T20:59:56.356Z,2.20
2022-08-11T21:10:56.585Z,2.33
2022-08-11T21:21:45.478Z,2.55
2022-08-11T21:33:30.634Z,2.30
2022-08-11T21:38:52.419Z,2.30
2022-08-11T21:44:16.026Z,2.33
2022-08-11T21:49:39.128Z,2.47
2022-08-11T22:01:06.239Z,2.20
2022-08-11T22:06:27.753Z,2.40
2022-08-11T22:12:29.809Z,2.10
2022-08-11T22:17:37.823Z,2.30
2022-08-11T22:23:01.568Z,2.60
2022-08-11T22:34:23.621Z,2.30
2022-08-11T22:40:01.819Z,2.70
2022-08-11T22:45:30.162Z,2.43
2022-08-11T22:51:09.457Z,2.63
2022-08-11T22:56:33.438Z,2.40
2022-08-11T23:07:57.705Z,2.47
2022-08-11T23:19:07.323Z,2.20
2022-08-11T23:30:25.777Z,2.30
2022-08-11T23:36:01.037Z,2.60
2022-08-11T23:41:34.150Z,2.57
2022-08-11T23:46:58.561Z,2.70
2022-08-11T23:52:21.214Z,3.00
2022-08-11T23:57:48.733Z,3.03
